Terminal Aerodrome Forecast
Issued by NWS

Home | Current Version | Previous Version | Graphics & Text | Print | Product List | Glossary On
Versions: 1 2 3 4 5 6 7 8 9 10 11 12 13 14 15 16 17 18
000
FTUS43 KGRB 190500
TAFAUW
TAF
KAUW 190520Z 1906/2006 23006KT P6SM OVC030
     FM190800 18005KT 4SM -SN SCT016 OVC025
      TEMPO 1908/1912 1 1/2SM -SN OVC016
     FM191300 26008KT 6SM -SN SCT020 OVC030
     FM191700 27014G22KT P6SM -SN BKN030 BKN045
     FM200000 27012G19KT P6SM BKN025 BKN040=

USA.gov is the U.S. government's official web portal to all federal, state and local government web resources and services.